createdAt,value
2019-03-21T00:01:50.395Z,99.90
2019-03-21T00:04:25.663Z,99.90
2019-03-21T00:07:00.975Z,99.90
2019-03-21T00:09:37.712Z,99.90
2019-03-21T00:12:13.091Z,99.90
2019-03-21T00:15:09.735Z,99.90
2019-03-21T00:17:48.327Z,99.90
2019-03-21T00:20:23.675Z,99.90
2019-03-21T00:22:59.497Z,99.90
2019-03-21T00:25:35.407Z,99.90
2019-03-21T00:28:10.699Z,99.90
2019-03-21T00:30:46.019Z,99.90
2019-03-21T00:33:21.367Z,99.90
2019-03-21T00:35:56.671Z,99.90
2019-03-21T00:38:31.939Z,99.90
2019-03-21T00:41:07.231Z,99.90
2019-03-21T00:43:42.487Z,99.90
2019-03-21T00:46:17.862Z,99.90
2019-03-21T00:48:53.139Z,99.90
2019-03-21T00:51:28.406Z,99.90
2019-03-21T00:54:03.752Z,99.90
2019-03-21T00:56:39.038Z,99.90
2019-03-21T00:59:14.306Z,99.90
2019-03-21T01:01:49.699Z,99.90
2019-03-21T01:04:28.208Z,99.90
2019-03-21T01:07:04.266Z,99.90
2019-03-21T01:09:40.115Z,99.90
2019-03-21T01:12:15.399Z,99.90
2019-03-21T01:14:50.703Z,99.90
2019-03-21T01:17:26.083Z,99.90
2019-03-21T01:20:01.371Z,99.90
2019-03-21T01:22:36.679Z,99.90
2019-03-21T01:25:15.479Z,99.90
2019-03-21T01:27:50.779Z,99.90
2019-03-21T01:30:26.287Z,99.90
2019-03-21T01:33:01.586Z,99.90
2019-03-21T01:35:37.351Z,99.90
2019-03-21T01:38:12.620Z,99.90
2019-03-21T01:40:48.840Z,99.90
2019-03-21T01:43:24.321Z,99.90
2019-03-21T01:45:59.639Z,99.90
2019-03-21T01:48:34.911Z,99.90
2019-03-21T01:51:10.190Z,99.90
2019-03-21T01:53:45.520Z,99.90
2019-03-21T01:56:20.807Z,99.90
2019-03-21T01:58:56.095Z,99.90
2019-03-21T02:01:31.431Z,99.90
2019-03-21T02:04:06.758Z,99.90
2019-03-21T02:06:42.083Z,99.90
2019-03-21T02:09:17.384Z,99.90
2019-03-21T02:11:52.663Z,99.90
2019-03-21T02:14:27.952Z,99.90
2019-03-21T02:17:03.224Z,99.90
2019-03-21T02:19:38.503Z,99.90
2019-03-21T02:22:13.854Z,99.90
2019-03-21T02:24:49.149Z,99.90
2019-03-21T02:27:24.419Z,99.90
2019-03-21T02:29:59.708Z,99.90
2019-03-21T02:32:35.056Z,99.90
2019-03-21T02:35:10.436Z,99.90
2019-03-21T02:37:45.704Z,99.90
2019-03-21T02:43:16.476Z,99.90
2019-03-21T02:45:51.953Z,99.90
2019-03-21T02:48:27.294Z,99.90
2019-03-21T02:51:02.616Z,99.90
2019-03-21T02:53:37.872Z,99.90
2019-03-21T02:56:14.803Z,99.90
2019-03-21T02:58:50.101Z,99.90
2019-03-21T03:01:25.548Z,99.90
2019-03-21T03:04:00.891Z,99.90
2019-03-21T03:06:36.172Z,99.90
2019-03-21T03:09:11.444Z,99.90
2019-03-21T03:11:46.807Z,99.90
2019-03-21T03:14:22.155Z,99.90
2019-03-21T03:16:57.507Z,99.90
2019-03-21T03:19:32.781Z,99.90
2019-03-21T03:22:08.058Z,99.90
2019-03-21T03:24:43.435Z,99.90
2019-03-21T03:27:18.740Z,99.90
2019-03-21T03:29:53.999Z,99.90
2019-03-21T03:32:29.322Z,99.90
2019-03-21T03:35:06.834Z,99.90
2019-03-21T03:37:42.627Z,99.90
2019-03-21T03:40:21.217Z,99.90
2019-03-21T03:42:56.644Z,99.90
2019-03-21T03:45:37.859Z,99.90
2019-03-21T03:48:10.239Z,99.90
2019-03-21T03:50:45.595Z,99.90
2019-03-21T03:53:20.949Z,99.90
2019-03-21T03:55:56.355Z,99.90
2019-03-21T03:58:31.796Z,99.90
2019-03-21T04:01:07.210Z,99.90
2019-03-21T04:03:42.652Z,99.90
2019-03-21T04:06:18.062Z,99.90
2019-03-21T04:08:53.494Z,99.90
2019-03-21T04:11:29.017Z,99.90
2019-03-21T04:14:06.472Z,99.90
2019-03-21T04:16:41.924Z,99.90
2019-03-21T04:19:17.210Z,99.90
2019-03-21T04:21:52.562Z,99.90
2019-03-21T04:24:28.427Z,99.90
2019-03-21T04:27:03.760Z,99.90
2019-03-21T04:29:39.244Z,99.90
2019-03-21T04:32:14.499Z,99.90
2019-03-21T04:34:49.786Z,99.90
2019-03-21T04:37:25.060Z,99.90
2019-03-21T04:40:00.464Z,99.90
2019-03-21T04:42:36.904Z,99.90
2019-03-21T04:45:17.198Z,99.90
2019-03-21T04:47:52.510Z,99.90
2019-03-21T04:50:28.035Z,99.90
2019-03-21T04:53:03.463Z,99.90
2019-03-21T04:55:38.799Z,99.90
2019-03-21T04:58:14.159Z,99.90
2019-03-21T05:00:49.761Z,99.90
2019-03-21T05:03:25.079Z,99.90
2019-03-21T05:06:00.889Z,99.90
2019-03-21T05:08:36.179Z,99.90
2019-03-21T05:11:11.441Z,99.90
2019-03-21T05:13:46.731Z,99.90
2019-03-21T05:16:22.014Z,99.90
2019-03-21T05:18:57.950Z,99.90
2019-03-21T05:21:33.223Z,99.90
2019-03-21T05:24:08.572Z,99.90
2019-03-21T05:26:43.935Z,99.90
2019-03-21T05:29:19.226Z,99.90
2019-03-21T05:31:54.571Z,99.90
2019-03-21T05:34:29.866Z,99.90
2019-03-21T05:37:06.410Z,99.90
2019-03-21T05:39:41.779Z,99.90
2019-03-21T05:42:20.781Z,99.90
2019-03-21T05:44:56.171Z,99.90
2019-03-21T05:47:33.450Z,99.90
2019-03-21T05:50:10.370Z,99.90
2019-03-21T05:52:45.851Z,99.90
2019-03-21T05:55:21.139Z,99.90
2019-03-21T05:57:56.538Z,99.90
2019-03-21T06:00:39.263Z,99.90
2019-03-21T06:03:21.989Z,99.90
2019-03-21T06:06:04.394Z,99.90
2019-03-21T06:08:40.022Z,99.90
2019-03-21T06:11:16.147Z,99.90
2019-03-21T06:13:51.421Z,99.90
2019-03-21T06:16:37.020Z,99.90
2019-03-21T06:19:10.802Z,99.90
2019-03-21T06:22:22.543Z,99.90
2019-03-21T06:25:43.691Z,99.90
2019-03-21T06:28:19.034Z,99.90
2019-03-21T06:30:54.347Z,99.90
2019-03-21T06:33:29.667Z,99.90
2019-03-21T06:36:05.107Z,99.90
2019-03-21T06:38:40.392Z,99.90
2019-03-21T06:41:15.686Z,99.90
2019-03-21T06:43:52.055Z,99.90
2019-03-21T06:46:27.480Z,99.90
2019-03-21T06:49:02.815Z,99.90
2019-03-21T06:51:38.164Z,99.90
2019-03-21T06:54:13.538Z,99.90
2019-03-21T06:56:48.823Z,99.90
2019-03-21T06:59:24.107Z,99.90
2019-03-21T07:01:59.390Z,99.90
2019-03-21T07:04:34.663Z,99.90
2019-03-21T07:07:09.945Z,99.90
2019-03-21T07:09:45.271Z,99.90
2019-03-21T07:12:20.620Z,99.90
2019-03-21T07:14:55.993Z,99.90
2019-03-21T07:17:31.256Z,99.90
2019-03-21T07:20:07.534Z,99.90
2019-03-21T07:22:42.867Z,99.90
2019-03-21T07:25:18.298Z,99.90
2019-03-21T07:27:53.555Z,99.90
2019-03-21T07:30:28.910Z,99.90
2019-03-21T07:33:04.246Z,99.90
2019-03-21T07:35:39.543Z,99.90
2019-03-21T07:38:14.808Z,99.90
2019-03-21T07:40:50.175Z,99.90
2019-03-21T07:43:25.439Z,99.90
2019-03-21T07:46:00.996Z,99.90
2019-03-21T07:48:37.482Z,99.90
2019-03-21T07:51:12.847Z,99.90
2019-03-21T07:53:48.192Z,99.90
2019-03-21T07:56:25.053Z,99.90
2019-03-21T07:59:00.511Z,99.90
2019-03-21T08:01:36.829Z,99.90
2019-03-21T08:04:12.095Z,99.90
2019-03-21T08:06:47.423Z,99.90
2019-03-21T08:09:22.826Z,99.90
2019-03-21T08:11:58.187Z,99.90
2019-03-21T08:14:33.606Z,99.90
2019-03-21T08:17:08.965Z,99.90
2019-03-21T08:19:44.228Z,99.90
2019-03-21T08:22:19.542Z,99.90
2019-03-21T08:24:54.819Z,99.90
2019-03-21T08:27:30.159Z,99.90
2019-03-21T08:30:06.486Z,99.90
2019-03-21T08:32:41.764Z,99.90
2019-03-21T08:35:17.099Z,99.90
2019-03-21T08:37:52.534Z,99.90
2019-03-21T08:40:27.863Z,99.90
2019-03-21T08:43:03.301Z,99.90
2019-03-21T08:45:38.566Z,99.90
2019-03-21T08:48:13.919Z,99.90
2019-03-21T08:50:49.275Z,99.90
2019-03-21T08:53:24.564Z,99.90
2019-03-21T08:55:59.902Z,99.90
2019-03-21T08:58:35.179Z,99.90
2019-03-21T09:01:10.611Z,99.90
2019-03-21T09:03:46.026Z,99.90
2019-03-21T09:06:21.436Z,99.90
2019-03-21T09:08:56.882Z,99.90
2019-03-21T09:11:32.186Z,99.90
2019-03-21T09:14:07.622Z,99.90
2019-03-21T09:16:42.954Z,99.90
2019-03-21T09:19:18.333Z,99.90
2019-03-21T09:21:53.679Z,99.90
2019-03-21T09:24:28.938Z,99.90
2019-03-21T09:27:04.549Z,99.90
2019-03-21T09:29:39.903Z,99.90
2019-03-21T09:32:15.269Z,99.90
2019-03-21T09:34:50.615Z,99.90
2019-03-21T09:37:26.115Z,99.90
2019-03-21T09:40:02.450Z,99.90
2019-03-21T09:42:37.711Z,99.90
2019-03-21T09:45:13.077Z,99.90
2019-03-21T09:47:48.410Z,99.90
2019-03-21T09:50:27.623Z,99.90
2019-03-21T09:53:02.903Z,99.90
2019-03-21T09:55:38.347Z,99.90
2019-03-21T09:58:13.706Z,99.90
2019-03-21T10:00:48.992Z,99.90
2019-03-21T10:03:24.343Z,99.90
2019-03-21T10:05:59.763Z,99.90
2019-03-21T10:08:35.063Z,99.90
2019-03-21T10:11:10.343Z,99.90
2019-03-21T10:13:45.700Z,99.90
2019-03-21T10:16:21.131Z,99.90
2019-03-21T10:18:56.768Z,99.90
2019-03-21T10:21:42.795Z,99.90
2019-03-21T10:24:09.018Z,99.90
2019-03-21T10:26:44.367Z,99.90
2019-03-21T10:29:19.652Z,99.90
2019-03-21T10:31:54.939Z,99.90
2019-03-21T10:34:30.215Z,99.90
2019-03-21T10:37:05.591Z,99.90
2019-03-21T10:39:40.859Z,99.90
2019-03-21T10:42:16.140Z,99.90
2019-03-21T10:44:51.508Z,99.90
2019-03-21T10:47:26.875Z,99.90
2019-03-21T10:50:02.245Z,99.90
2019-03-21T10:52:37.598Z,99.90
2019-03-21T10:55:13.027Z,99.90
2019-03-21T10:57:48.367Z,99.90
2019-03-21T11:00:24.282Z,99.90
2019-03-21T11:02:59.731Z,99.80
2019-03-21T11:05:35.267Z,99.20
2019-03-21T11:08:10.626Z,99.90
2019-03-21T11:10:47.224Z,99.90
2019-03-21T11:13:23.783Z,99.90
2019-03-21T11:15:59.322Z,97.10
2019-03-21T11:18:36.313Z,97.50
2019-03-21T11:21:11.918Z,97.30
2019-03-21T11:23:47.210Z,92.40
2019-03-21T11:26:22.498Z,93.80
2019-03-21T11:28:57.793Z,94.60
2019-03-21T11:31:33.174Z,93.70
2019-03-21T11:34:08.600Z,93.60
2019-03-21T11:36:43.963Z,90.80
2019-03-21T11:39:19.231Z,85.30
2019-03-21T11:41:54.525Z,89.20
2019-03-21T11:44:29.811Z,93.10
2019-03-21T11:47:05.175Z,91.80
2019-03-21T11:49:40.467Z,95.90
2019-03-21T11:52:18.528Z,98.60
2019-03-21T11:54:53.812Z,98.60
2019-03-21T11:57:29.089Z,99.00
2019-03-21T12:00:04.971Z,94.90
2019-03-21T12:02:40.329Z,96.60
2019-03-21T12:05:15.690Z,93.20
2019-03-21T12:07:51.484Z,94.90
2019-03-21T12:10:26.934Z,94.50
2019-03-21T12:13:02.299Z,92.00
2019-03-21T12:15:37.672Z,90.10
2019-03-21T12:18:12.969Z,89.70
2019-03-21T12:20:48.246Z,83.40
2019-03-21T12:23:23.540Z,78.90
2019-03-21T12:25:58.883Z,88.30
2019-03-21T12:28:34.327Z,90.30
2019-03-21T12:31:09.844Z,89.50
2019-03-21T12:33:45.212Z,82.80
2019-03-21T12:36:20.586Z,81.20
2019-03-21T12:38:55.937Z,82.40
2019-03-21T12:41:31.243Z,84.10
2019-03-21T12:44:06.707Z,86.50
2019-03-21T12:46:42.063Z,83.40
2019-03-21T12:49:17.356Z,90.00
2019-03-21T12:51:52.773Z,86.70
2019-03-21T12:54:29.203Z,80.10
2019-03-21T12:57:04.646Z,80.40
2019-03-21T12:59:39.990Z,82.40
2019-03-21T13:02:15.335Z,74.90
2019-03-21T13:04:50.931Z,80.20
2019-03-21T13:07:26.242Z,78.20
2019-03-21T13:10:01.754Z,76.80
2019-03-21T13:12:37.161Z,82.80
2019-03-21T13:15:12.594Z,75.40
2019-03-21T13:17:47.890Z,80.90
2019-03-21T13:20:23.585Z,88.30
2019-03-21T13:22:58.976Z,85.80
2019-03-21T13:25:34.483Z,79.70
2019-03-21T13:28:09.743Z,83.70
2019-03-21T13:30:45.258Z,87.50
2019-03-21T13:33:20.895Z,81.30
2019-03-21T13:35:56.265Z,79.00
2019-03-21T13:38:31.695Z,71.90
2019-03-21T13:41:07.139Z,75.80
2019-03-21T13:43:42.415Z,67.40
2019-03-21T13:46:17.774Z,70.90
2019-03-21T13:48:53.119Z,61.80
2019-03-21T13:51:28.424Z,57.00
2019-03-21T13:54:03.887Z,57.20
2019-03-21T13:56:39.174Z,56.40
2019-03-21T13:59:14.670Z,56.70
2019-03-21T14:01:49.978Z,67.30
2019-03-21T14:04:25.364Z,70.90
2019-03-21T14:07:00.662Z,65.50
2019-03-21T14:09:36.087Z,72.00
2019-03-21T14:12:11.459Z,74.60
2019-03-21T14:14:46.835Z,73.90
2019-03-21T14:17:22.469Z,76.00
2019-03-21T14:19:57.931Z,75.40
2019-03-21T14:22:33.219Z,78.30
2019-03-21T14:25:08.757Z,78.70
2019-03-21T14:27:44.262Z,76.40
2019-03-21T14:30:19.799Z,78.00
2019-03-21T14:32:55.101Z,66.10
2019-03-21T14:35:30.450Z,63.50
2019-03-21T14:38:05.746Z,62.10
2019-03-21T14:40:41.043Z,60.90
2019-03-21T14:43:16.555Z,62.40
2019-03-21T14:45:51.831Z,69.40
2019-03-21T14:48:27.170Z,70.60
2019-03-21T14:51:02.637Z,69.90
2019-03-21T14:53:37.946Z,75.50
2019-03-21T14:56:13.439Z,69.50
2019-03-21T14:58:48.803Z,72.10
2019-03-21T15:01:24.163Z,75.50
2019-03-21T15:04:00.647Z,67.80
2019-03-21T15:06:35.989Z,71.30
2019-03-21T15:09:11.991Z,72.20
2019-03-21T15:11:47.488Z,69.90
2019-03-21T15:14:22.954Z,70.50
2019-03-21T15:16:58.303Z,69.80
2019-03-21T15:19:34.152Z,68.90
2019-03-21T15:22:09.530Z,67.70
2019-03-21T15:24:44.963Z,67.50
2019-03-21T15:27:20.327Z,71.50
2019-03-21T15:29:55.772Z,67.10
2019-03-21T15:32:31.206Z,68.90
2019-03-21T15:35:09.000Z,68.50
2019-03-21T15:37:44.343Z,65.40
2019-03-21T15:40:19.727Z,59.60
2019-03-21T15:42:57.046Z,57.90
2019-03-21T15:45:32.174Z,59.30
2019-03-21T15:48:07.595Z,57.50
2019-03-21T15:50:43.035Z,59.70
2019-03-21T15:53:18.383Z,60.00
2019-03-21T15:55:53.671Z,61.20
2019-03-21T15:58:29.050Z,57.70
2019-03-21T16:01:04.703Z,58.00
2019-03-21T16:03:40.027Z,58.30
2019-03-21T16:06:15.302Z,57.50
2019-03-21T16:08:50.611Z,57.00
2019-03-21T16:11:25.951Z,58.00
2019-03-21T16:14:01.305Z,60.30
2019-03-21T16:16:36.667Z,60.40
2019-03-21T16:19:11.967Z,63.80
2019-03-21T16:21:47.311Z,58.60
2019-03-21T16:24:22.591Z,56.40
2019-03-21T16:26:57.863Z,59.00
2019-03-21T16:29:33.240Z,57.20
2019-03-21T16:32:08.603Z,58.60
2019-03-21T16:34:43.944Z,59.20
2019-03-21T16:37:19.221Z,58.80
2019-03-21T16:39:54.506Z,58.80
2019-03-21T16:42:29.791Z,57.40
2019-03-21T16:45:06.792Z,60.70
2019-03-21T16:47:42.087Z,59.70
2019-03-21T16:50:17.583Z,60.20
2019-03-21T16:52:52.931Z,59.80
2019-03-21T16:55:28.212Z,58.70
2019-03-21T16:58:03.677Z,63.60
2019-03-21T17:00:39.021Z,56.60
2019-03-21T17:03:14.437Z,59.70
2019-03-21T17:05:49.806Z,57.90
2019-03-21T17:08:25.159Z,58.10
2019-03-21T17:11:00.473Z,58.50
2019-03-21T17:13:55.022Z,57.90
2019-03-21T17:16:30.467Z,58.70
2019-03-21T17:19:05.765Z,58.90
2019-03-21T17:21:41.155Z,61.80
2019-03-21T17:24:28.420Z,58.30
2019-03-21T17:26:54.695Z,57.10
2019-03-21T17:29:30.015Z,57.50
2019-03-21T17:32:05.531Z,57.90
2019-03-21T17:34:40.980Z,59.50
2019-03-21T17:37:16.334Z,60.60
2019-03-21T17:39:52.751Z,59.10
2019-03-21T17:42:28.119Z,59.40
2019-03-21T17:45:03.816Z,59.90
2019-03-21T17:47:39.179Z,60.10
2019-03-21T17:50:15.142Z,60.20
2019-03-21T17:52:50.611Z,61.00
2019-03-21T17:55:26.073Z,61.20
2019-03-21T17:58:01.399Z,62.30
2019-03-21T18:00:37.146Z,62.30
2019-03-21T18:03:13.546Z,62.30
2019-03-21T18:05:48.927Z,61.80
2019-03-21T18:08:25.386Z,61.80
2019-03-21T18:11:00.856Z,65.70
2019-03-21T18:13:36.205Z,65.90
2019-03-21T18:16:11.704Z,65.60
2019-03-21T18:18:47.087Z,64.50
2019-03-21T18:21:22.472Z,68.10
2019-03-21T18:23:57.931Z,69.10
2019-03-21T18:26:33.231Z,69.10
2019-03-21T18:29:09.669Z,69.70
2019-03-21T18:31:46.035Z,70.60
2019-03-21T18:34:21.374Z,70.10
2019-03-21T18:36:56.899Z,69.50
2019-03-21T18:39:32.324Z,70.00
2019-03-21T18:42:07.952Z,71.80
2019-03-21T18:44:43.495Z,73.20
2019-03-21T18:47:18.823Z,73.70
2019-03-21T18:49:54.193Z,74.90
2019-03-21T18:52:29.549Z,74.90
2019-03-21T18:55:07.057Z,75.30
2019-03-21T18:57:42.674Z,74.60
2019-03-21T19:00:19.068Z,74.10
2019-03-21T19:02:54.631Z,74.10
2019-03-21T19:05:29.922Z,72.10
2019-03-21T19:08:05.399Z,74.40
2019-03-21T19:10:40.765Z,72.50
2019-03-21T19:13:16.119Z,73.20
2019-03-21T19:15:51.423Z,77.20
2019-03-21T19:18:26.783Z,77.80
2019-03-21T19:21:02.062Z,77.90
2019-03-21T19:23:37.548Z,77.80
2019-03-21T19:26:12.902Z,78.70
2019-03-21T19:28:48.261Z,78.10
2019-03-21T19:31:23.618Z,78.50
2019-03-21T19:33:58.875Z,78.50
2019-03-21T19:36:34.195Z,79.80
2019-03-21T19:39:10.019Z,79.60
2019-03-21T19:41:45.403Z,80.20
2019-03-21T19:44:20.660Z,79.80
2019-03-21T19:46:56.046Z,79.70
2019-03-21T19:49:31.391Z,80.60
2019-03-21T19:52:06.688Z,80.00
2019-03-21T19:54:42.059Z,79.50
2019-03-21T19:57:17.351Z,80.10
2019-03-21T19:59:52.747Z,79.40
2019-03-21T20:02:28.027Z,82.20
2019-03-21T20:05:05.131Z,85.40
2019-03-21T20:07:41.388Z,86.70
2019-03-21T20:10:17.122Z,86.50
2019-03-21T20:12:52.466Z,86.70
2019-03-21T20:15:29.047Z,85.40
2019-03-21T20:18:04.719Z,85.70
2019-03-21T20:20:40.250Z,86.00
2019-03-21T20:23:15.538Z,85.50
2019-03-21T20:25:51.098Z,87.00
2019-03-21T20:28:26.438Z,86.90
2019-03-21T20:31:01.882Z,86.50
2019-03-21T20:33:38.339Z,88.10
2019-03-21T20:36:13.656Z,86.90
2019-03-21T20:38:49.103Z,87.90
2019-03-21T20:41:25.014Z,88.60
2019-03-21T20:44:00.299Z,88.20
2019-03-21T20:46:35.741Z,86.00
2019-03-21T20:49:11.184Z,88.80
2019-03-21T20:51:46.462Z,89.80
2019-03-21T20:54:21.791Z,90.00
2019-03-21T20:56:57.242Z,89.50
2019-03-21T20:59:33.214Z,89.00
2019-03-21T21:02:08.523Z,90.00
2019-03-21T21:04:44.163Z,90.00
2019-03-21T21:07:20.666Z,91.70
2019-03-21T21:09:56.011Z,91.60
2019-03-21T21:12:31.454Z,91.20
2019-03-21T21:15:07.958Z,89.20
2019-03-21T21:17:43.443Z,90.40
2019-03-21T21:20:19.439Z,90.70
2019-03-21T21:22:54.893Z,89.80
2019-03-21T21:25:30.171Z,90.00
2019-03-21T21:28:05.623Z,97.20
2019-03-21T21:30:40.890Z,92.20
2019-03-21T21:33:16.343Z,92.40
2019-03-21T21:35:51.686Z,92.00
2019-03-21T21:38:27.043Z,92.10
2019-03-21T21:41:02.322Z,92.70
2019-03-21T21:43:37.654Z,93.40
2019-03-21T21:46:13.079Z,92.70
2019-03-21T21:48:48.379Z,91.50
2019-03-21T21:51:23.761Z,91.90
2019-03-21T21:53:59.047Z,92.60
2019-03-21T21:56:36.414Z,92.90
2019-03-21T21:59:11.767Z,92.20
2019-03-21T22:01:47.071Z,92.70
2019-03-21T22:04:22.405Z,93.20
2019-03-21T22:06:57.774Z,92.70
2019-03-21T22:09:33.122Z,92.20
2019-03-21T22:12:09.551Z,92.60
2019-03-21T22:14:44.835Z,93.40
2019-03-21T22:17:20.226Z,93.80
2019-03-21T22:19:55.514Z,93.80
2019-03-21T22:22:30.815Z,92.70
2019-03-21T22:25:08.060Z,93.10
2019-03-21T22:27:43.518Z,95.10
2019-03-21T22:30:19.356Z,95.10
2019-03-21T22:32:54.634Z,94.20
2019-03-21T22:35:30.013Z,94.30
2019-03-21T22:38:05.411Z,94.80
2019-03-21T22:40:40.713Z,94.90
2019-03-21T22:43:16.076Z,94.30
2019-03-21T22:45:51.454Z,94.00
2019-03-21T22:48:26.735Z,93.90
2019-03-21T22:51:02.026Z,93.30
2019-03-21T22:53:37.351Z,95.50
2019-03-21T22:56:12.622Z,96.50
2019-03-21T22:58:47.907Z,96.80
2019-03-21T23:01:23.535Z,94.50
2019-03-21T23:03:58.899Z,94.40
2019-03-21T23:06:35.118Z,95.00
2019-03-21T23:09:10.475Z,94.50
2019-03-21T23:11:45.830Z,95.10
2019-03-21T23:14:21.114Z,96.10
2019-03-21T23:16:56.474Z,95.50
2019-03-21T23:19:31.907Z,96.40
2019-03-21T23:22:07.190Z,96.80
2019-03-21T23:24:42.551Z,95.50
2019-03-21T23:27:17.827Z,95.20
2019-03-21T23:29:53.221Z,95.40
2019-03-21T23:32:28.643Z,95.20
2019-03-21T23:35:04.107Z,95.40
2019-03-21T23:37:40.618Z,95.70
2019-03-21T23:40:16.162Z,96.30
2019-03-21T23:42:51.443Z,96.80
2019-03-21T23:45:26.870Z,97.10
2019-03-21T23:48:02.211Z,96.40
2019-03-21T23:50:37.504Z,97.70
2019-03-21T23:53:12.786Z,97.40
2019-03-21T23:55:48.074Z,97.40
2019-03-21T23:58:23.400Z,98.70
